Flight Track Log - Related Links

Times and Time Zones

All times are in EDT time to prevent confusion due to time zone crossing. See the LYM1725 flight status page for this flight to view local times or setup timezone preferences in your user account.

Time Position Orientation Groundspeed Altitude Reporting Facility
EDT Latitude Longitude Course Direction KTS MPH feet Rate Location/Type
Fri 09:02:13 PM 43.0175 -108.3703 127° Southeast 211 243 8,700  Level Salt Lake Center
Fri 09:03:15 PM 42.9844 -108.3094 127° Southeast 207 238 10,400 1,659 Climbing Salt Lake Center
Fri 09:04:16 PM 42.9478 -108.2294 122° Southeast 220 253 12,100 1,659 Climbing Salt Lake Center
Fri 09:05:18 PM 42.9083 -108.1444 122° Southeast 231 266 13,800 1,659 Climbing Salt Lake Center
Fri 09:06:19 PM 42.8700 -108.0761 127° Southeast 236 272 15,500 1,317 Climbing Salt Lake Center
Fri 09:07:21 PM 42.8311 -108.0092 128° Southeast 235 270 16,500 1,366 Climbing Salt Lake Center
Fri 09:08:22 PM 42.7797 -107.9297 131° Southeast 244 281 18,300 1,415 Climbing Salt Lake Center
Fri 09:09:24 PM 42.7383 -107.8633 130° Southeast 240 276 19,400 1,171 Climbing Salt Lake Center
Fri 09:10:25 PM 42.6892 -107.7828 130° Southeast 245 282 20,700 732 Climbing Salt Lake Center
Fri 09:11:27 PM 42.6436 -107.7136 132° Southeast 253 291 20,900 146 Climbing Salt Lake Center
Fri 09:12:28 PM 42.5847 -107.6247 132° Southeast 281 323 21,000 49 Climbing Salt Lake Center
Fri 09:13:30 PM 42.5333 -107.5439 131° Southeast 291 335 21,000  Level Salt Lake Center
Fri 09:14:31 PM 42.4825 -107.4622 130° Southeast 295 339 21,000  Level Salt Lake Center
Fri 09:15:33 PM 42.4206 -107.3658 131° Southeast 303 349 21,000  Level Salt Lake Center
Fri 09:15:58 PM 42.4047 -107.3378 127° Southeast 301 346 21,000 -69 Level Denver Center
Fri 09:17:00 PM 42.3425 -107.2425 131° Southeast 303 349 20,900 -48 Descending Denver Center
Fri 09:18:02 PM 42.2889 -107.1614 132° Southeast 301 346 20,900 44 Level Denver Center
Fri 09:19:16 PM 42.2250 -107.0678 133° Southeast 302 348 21,000 44 Climbing Denver Center
Fri 09:20:18 PM 42.1533 -106.9567 131° Southeast 307 353 21,000 -48 Level Denver Center
Fri 09:21:20 PM 42.1000 -106.8747 131° Southeast 306 352 20,900  Descending Denver Center
Fri 09:22:22 PM 42.0461 -106.7919 131° Southeast 308 354 21,000 48 Climbing Denver Center
Fri 09:23:24 PM 41.9833 -106.6953 131° Southeast 306 352 21,000  Level Denver Center
Fri 09:24:26 PM 41.9383 -106.6250 131° Southeast 309 356 21,000 -48 Level Denver Center
Fri 09:25:28 PM 41.8681 -106.5150 131° Southeast 304 350 20,900 48 Descending Denver Center
Fri 09:26:30 PM 41.8097 -106.4297 133° Southeast 301 346 21,100  Climbing Denver Center
Fri 09:27:32 PM 41.7550 -106.3481 132° Southeast 304 350 20,900 -97 Descending Denver Center
Fri 09:28:34 PM 41.6914 -106.2528 132° Southeast 308 354 20,900  Level Denver Center
Fri 09:29:48 PM 41.6356 -106.1719 133° Southeast 310 357 20,900  Level Denver Center
Fri 09:30:50 PM 41.5647 -106.0628 131° Southeast 308 354 20,900 48 Level Denver Center
Fri 09:31:52 PM 41.5094 -105.9794 132° Southeast 313 360 21,000  Climbing Denver Center
Fri 09:32:54 PM 41.4458 -105.8842 132° Southeast 310 357 20,900 -290 Descending Denver Center
Fri 09:33:56 PM 41.3897 -105.8028 133° Southeast 311 358 20,400 -726 Descending Denver Center
Fri 09:34:58 PM 41.3233 -105.7003 131° Southeast 325 374 19,400 -871 Descending Denver Center
Fri 09:36:00 PM 41.2628 -105.6153 133° Southeast 329 379 18,600 -823 Descending Denver Center
Fri 09:37:02 PM 41.1919 -105.5150 133° Southeast 333 383 17,700 -919 Descending Denver Center
Fri 09:38:04 PM 41.1317 -105.4275 132° Southeast 334 384 16,700 -1,258 Descending Denver Center
Fri 09:39:06 PM 41.0608 -105.3286 134° Southeast 333 383 15,100 -1,210 Descending Denver Center
Fri 09:40:08 PM 40.9969 -105.2422 134° Southeast 329 379 14,200 -871 Descending Denver Center
Fri 09:41:10 PM 40.9350 -105.1542 133° Southeast 325 374 13,300 -576 Descending Denver Center
Fri 09:42:13 PM 40.8750 -105.0683 133° Southeast 318 366 13,000 -96 Descending Denver Center
Fri 09:43:15 PM 40.8158 -104.9844 133° Southeast 312 359 13,100 -339 Climbing Denver Center
Fri 09:44:17 PM 40.7347 -104.9242 151° Southeast 319 367 12,300 -677 Descending Denver Center
Fri 09:45:19 PM 40.6417 -104.9028 170° South 311 358 11,700 -532 Descending Denver Center
Fri 09:46:21 PM 40.5597 -104.8814 169° South 301 346 11,200 -290 Descending Denver Center
Fri 09:47:23 PM 40.4739 -104.8592 169° South 294 338 11,100 -48 Descending Denver Center
Fri 09:48:25 PM 40.3922 -104.8375 169° South 298 343 11,100  Level Denver Center
Fri 09:49:27 PM 40.3125 -104.8142 167° South 292 336 11,100  Level Denver Center
Fri 09:50:29 PM 40.2219 -104.8083 177° South 300 345 11,100  Level Denver Center
Fri 09:51:31 PM 40.1403 -104.8119 182° South 297 342 11,100  Level Denver Center
Fri 09:52:33 PM 40.0492 -104.8100 179° South 305 351 11,100 -48 Level Denver Center
Fri 09:53:35 PM 39.9717 -104.8083 179° South 285 328 11,000  Descending Denver Center
Fri 09:54:37 PM 39.8908 -104.8056 178° South 272 313 11,100 48 Climbing Denver Center
Fri 09:55:39 PM 39.8164 -104.8017 178° South 271 312 11,100 -194 Level Denver Center
Fri 09:56:41 PM 39.7364 -104.8008 180° South 269 310 10,700 -774 Descending Denver Center
Fri 09:57:43 PM 39.6786 -104.7992 179° South 251 289 9,500 -968 Descending Denver Center
Fri 09:58:45 PM 39.6578 -104.7106 107° East 233 268 8,700 -774 Descending Denver Center
Fri 09:59:47 PM 39.6864 -104.6625 52° Northeast 216 249 7,900 -387 Descending Denver Center
Fri 10:00:49 PM 39.7519 -104.6636 359° North 221 254 7,900 -750 Level Denver Center
Fri 10:02:03 PM 39.8011 -104.6617 North 182 209 6,200 -1,103 Descending Denver Center
Fri 10:03:05 PM 39.8447 -104.6617 360° North 123 142 5,400 -774 Descending Denver Center

Login

Don't have an account? Register now (free) for customized features, flight alerts, and more!